MRLB

Details ICAO MRLB (LIR)
Name Daniel Oduber Quiros Intl
Region Costa Rica
Timezone America/Costa_Rica (UTC-6.0)
Plans Departing 79
Arriving 113
Stats Elevation 270 ft / 82 m (AMSL)
Location 10.593400° -85.544500°
Runways 1
Magnetic Variation 1.151° W
Sunrise 2018-09-19 11:32:52 UTC / 2018-09-19 05:32:52 Local
Sunset 2018-09-19 23:41:47 UTC / 2018-09-19 17:41:47 Local
Advertisement - Login to hide

Runways

ID Width Length Bearing (true/mag) Surface Threshold Overrun Markings Lighting
07 148 ft / 45 m 9,031 ft / 2,753 m 70.05° / 71.20° ASPHALT 0 ft / 0 m 0 ft / 0 m PREC-APP CENTERLINE EDGE THRESHOLD ALSF-II
25 148 ft / 45 m 9,031 ft / 2,753 m 250.05° / 251.20° ASPHALT 0 ft / 0 m 0 ft / 0 m PREC-APP CENTERLINE EDGE THRESHOLD ALSF-II

Map

Weather


0- 5 10 15 20 25 30 35+ Temperature / °C

Clouds and Precipitation
Forecast for 2018-09-19 06:00 UTC. Updated 2 hours ago

Ground ~20,000 ft ~40,000 ft Winds

METAR

MRLB 190500Z 16004KT 9999 FEW045 BKN100 25/24 A2981 NOSIG

TAF

TAF TAF MRLB 182300Z 1900/1924 08006KT 9999 FEW040 TX33/1919Z TN22/1911Z TEMPO 1910/1914 VRB02KT BCFG SCT001 BECMG 1916/1918 22007KT TEMPO 1920/1924 29012KT 5000 SHRA SCT025TCU

Frequencies

Ground 121.70 MHz
Approach 119.80 MHz LIBERIA APP
Tower 118.80 MHz LIBERIA TWR
Warning: Do not use this data for real-world aviation or navigation. No guarantee of current accuracy is given.